Time;durP1;ratioP1;P1;durP2;ratioP2;P2;SDS_P1;SDS_P2;PMS_P1;PMS_P2;Temp;Humidity;BMP_temperature;BMP_pressure;BME280_temperature;BME280_humidity;BME280_pressure;Samples;Min_cycle;Max_cycle;Signal;HPM_P1;HPM_P2
2023/03/05 15:35:14;;;;;;;7.93;1.27;;;;;;;;;;5058073;27;20108;-87
2023/03/05 15:37:59;;;;;;;4.25;1.13;;;;;;;;;;5028719;27;20044;-87
2023/03/05 15:40:43;;;;;;;4.63;1.10;;;;;;;;;;5044114;27;20080;-88
2023/03/05 15:43:29;;;;;;;3.47;1.00;;;;;;;;;;5087848;27;20047;-89
2023/03/05 15:46:19;;;;;;;4.40;1.20;;;7.00;99.90;;;;;;5034300;27;20485;-87
2023/03/05 15:49:04;;;;;;;3.47;1.00;;;;;;;;;;5011258;28;20119;-87
2023/03/05 15:51:48;;;;;;;2.30;1.10;;;;;;;;;;5053756;27;20065;-86
2023/03/05 15:54:34;;;;;;;4.78;1.10;;;6.80;99.90;;;;;;5028349;27;20056;-87
2023/03/05 15:57:22;;;;;;;7.95;1.17;;;6.70;99.90;;;;;;5011349;27;20057;-87
2023/03/05 16:00:08;;;;;;;4.22;1.58;;;6.60;99.90;;;;;;5113156;27;20067;-87
2023/03/05 16:02:53;;;;;;;9.23;3.08;;;;;;;;;;5059521;28;20032;-87
2023/03/05 16:05:37;;;;;;;4.45;1.30;;;;;;;;;;5110801;27;20041;-89
2023/03/05 16:08:22;;;;;;;2.70;1.20;;;;;;;;;;5042511;27;20068;-88
2023/03/05 16:11:07;;;;;;;8.05;1.10;;;6.40;99.90;;;;;;5111419;27;20504;-89
2023/03/05 16:13:52;;;;;;;1.88;0.90;;;;;;;;;;5008604;27;20125;-88
2023/03/05 16:16:37;;;;;;;3.95;1.20;;;6.40;99.90;;;;;;5117083;27;20046;-89
2023/03/05 16:19:25;;;;;;;3.75;1.35;;;6.40;99.90;;;;;;5029117;27;20048;-89
2023/03/05 16:22:10;;;;;;;5.78;1.30;;;;;;;;;;5077328;27;20064;-90
2023/03/05 16:24:56;;;;;;;4.55;1.05;;;;;;;;;;5017033;28;20068;-89
2023/03/05 16:27:40;;;;;;;6.13;2.03;;;;;;;;;;5114658;27;20045;-88
2023/03/05 16:30:25;;;;;;;3.70;1.30;;;;;;;;;;5105601;27;20055;-89
2023/03/05 16:33:09;;;;;;;6.40;1.20;;;;;;;;;;5104833;27;20064;-89
2023/03/05 16:36:19;;;;;;;2.55;0.90;;;6.20;99.90;;;;;;5109358;27;20057;-88
2023/03/05 16:39:04;;;;;;;4.15;1.10;;;;;;;;;;5023230;28;20051;-89
2023/03/05 16:41:49;;;;;;;2.92;1.00;;;;;;;;;;5124882;27;20088;-89
2023/03/05 16:44:34;;;;;;;3.88;1.10;;;;;;;;;;5021194;28;20068;-90
2023/03/05 16:47:18;;;;;;;7.35;1.33;;;;;;;;;;4996883;28;20044;-89
2023/03/05 16:50:07;;;;;;;4.25;1.00;;;6.00;99.90;;;;;;5008916;28;20049;-89
2023/03/05 16:52:51;;;;;;;4.50;1.55;;;;;;;;;;5077849;28;20073;-89
2023/03/05 16:55:36;;;;;;;5.50;1.23;;;;;;;;;;5055165;28;20040;-89
2023/03/05 16:58:21;;;;;;;17.52;2.40;;;;;;;;;;5026467;27;20428;-89
2023/03/05 17:01:23;;;;;;;8.10;2.08;;;8.90;99.90;;;;;;5075081;28;20107;-90
2023/03/05 17:04:08;;;;;;;5.82;1.42;;;;;;;;;;4995612;28;20122;-89
2023/03/05 17:06:55;;;;;;;4.53;1.38;;;;;;;;;;5022947;28;20032;-90
2023/03/05 17:09:40;;;;;;;4.15;1.10;;;;;;;;;;5013259;28;20045;-90
2023/03/05 17:12:25;;;;;;;2.83;1.48;;;;;;;;;;5089666;27;20048;-87
2023/03/05 17:15:15;;;;;;;4.47;1.15;;;5.80;99.90;;;;;;5015005;28;20090;-90
2023/03/05 17:18:09;;;;;;;15.13;2.50;;;;;;;;;;5002471;28;20106;-90
2023/03/05 17:20:53;;;;;;;6.35;2.10;;;;;;;;;;5092862;27;20056;-91
2023/03/05 17:23:38;;;;;;;5.40;1.33;;;;;;;;;;5029282;28;20040;-90
2023/03/05 17:26:26;;;;;;;4.95;1.25;;;5.50;99.90;;;;;;5012544;28;20424;-90
2023/03/05 17:29:11;;;;;;;4.15;1.75;;;5.40;99.90;;;;;;5004912;28;20098;-90
2023/03/05 17:31:56;;;;;;;5.68;1.63;;;;;;;;;;5023104;28;20041;-90
2023/03/05 17:34:42;;;;;;;5.88;1.50;;;;;;;;;;5090697;27;20095;-91
2023/03/05 17:37:26;;;;;;;6.28;1.25;;;;;;;;;;5017894;28;20052;-90
2023/03/05 17:40:13;;;;;;;8.90;1.70;;;5.30;99.90;;;;;;5002475;28;20044;-90
2023/03/05 17:42:57;;;;;;;7.63;1.40;;;;;;;;;;5016145;28;20105;-89
2023/03/05 17:45:42;;;;;;;6.22;1.40;;;;;;;;;;5103467;27;20063;-90
2023/03/05 17:48:27;;;;;;;6.30;1.60;;;5.20;99.90;;;;;;5015673;28;20047;-91
2023/03/05 17:51:15;;;;;;;6.07;1.40;;;5.10;99.90;;;;;;5016008;28;20090;-90
2023/03/05 17:54:00;;;;;;;5.97;1.38;;;;;;;;;;5010293;28;20074;-90
2023/03/05 17:56:46;;;;;;;14.88;2.72;;;;;;;;;;5015650;28;20051;-91
2023/03/05 17:59:31;;;;;;;9.35;1.50;;;;;;;;;;5010755;28;20510;-89
2023/03/05 18:02:16;;;;;;;10.02;1.92;;;;;;;;;;5033926;28;20501;-93
2023/03/05 18:05:00;;;;;;;5.32;1.90;;;;;;;;;;5015821;28;20446;-89
2023/03/05 18:07:45;;;;;;;5.93;2.22;;;;;;;;;;5010261;28;20033;-91
2023/03/05 18:10:34;;;;;;;8.07;2.08;;;4.70;99.90;;;;;;5023671;28;20521;-91
2023/03/05 18:13:20;;;;;;;12.13;2.67;;;;;;;;;;5013543;28;20077;-91
2023/03/05 18:16:05;;;;;;;11.75;1.95;;;;;;;;;;5095302;27;20044;-90
2023/03/05 18:18:51;;;;;;;6.57;2.58;;;4.50;99.90;;;;;;5009952;28;20091;-90
2023/03/05 18:21:36;;;;;;;6.35;1.88;;;;;;;;;;5003988;28;20083;-90
2023/03/05 18:24:21;;;;;;;6.80;1.88;;;;;;;;;;5086270;27;20107;-91
2023/03/05 18:27:06;;;;;;;6.18;1.98;;;;;;;;;;5029464;28;20094;-87
2023/03/05 18:29:52;;;;;;;5.50;1.48;;;;;;;;;;5096422;27;20150;-87
2023/03/05 18:32:44;;;;;;;4.45;2.65;;;4.30;99.90;;;;;;5016042;28;20045;-95
2023/03/05 18:35:32;;;;;;;5.68;1.85;;;4.30;99.90;;;;;;5068112;28;20069;-90
2023/03/05 18:38:22;;;;;;;8.20;2.40;;;4.20;99.90;;;;;;4990349;28;20077;-92
2023/03/05 18:41:07;;;;;;;8.27;2.58;;;;;;;;;;4990145;28;20099;-91
2023/03/05 18:43:53;;;;;;;8.13;1.77;;;;;;;;;;4989819;28;20041;-91
2023/03/05 18:46:37;;;;;;;7.68;2.15;;;;;;;;;;4976250;28;20079;-89
2023/03/05 18:49:33;;;;;;;6.25;1.90;;;4.00;99.90;;;;;;4985719;28;20037;-91
2023/03/05 18:52:18;;;;;;;7.20;2.00;;;;;;;;;;4986908;28;20398;-91
2023/03/05 18:55:03;;;;;;;4.85;1.90;;;;;;;;;;4985222;28;20049;-90
2023/03/05 18:57:48;;;;;;;35.58;17.27;;;;;;;;;;4974512;28;20038;-90
2023/03/05 19:17:42;;;;;;;;;;;;;;;;;;;;;
2023/03/05 19:49:07;;;;;;;;;;;;;;;;;;;;;
2023/03/05 19:55:40;;;;;;;9.10;3.70;;;3.20;99.90;;;;;;6189266;23;20124;-92
2023/03/05 19:59:20;;;;;;;;;;;;;;;;;;;;;
2023/03/05 20:05:43;;;;;;;11.13;4.37;;;3.10;99.90;;;;;;6188252;23;20024;-90
2023/03/05 20:08:57;;;;;;;8.60;4.47;;;;;;;;;;6147432;23;20099;-90
2023/03/05 20:23:03;;;;;;;;;;;;;;;;;;;;;
2023/03/05 20:42:32;;;;;;;;;;;;;;;;;;;;;
2023/03/05 21:23:16;;;;;;;8.40;4.07;;;;;;;;;;6173512;22;1367190;-91
2023/03/05 21:26:02;;;;;;;7.97;3.20;;;;;;;;;;6200044;23;20078;-92
2023/03/05 21:28:47;;;;;;;11.10;4.00;;;;;;;;;;6201480;23;20518;-91
2023/03/05 21:31:37;;;;;;;17.53;9.80;;;3.00;99.90;;;;;;6201552;23;20063;-90
2023/03/05 21:34:22;;;;;;;8.57;3.60;;;;;;;;;;6181781;23;20023;-91
2023/03/05 21:37:06;;;;;;;12.33;4.00;;;;;;;;;;6202450;23;20012;-92
2023/03/05 21:39:51;;;;;;;11.97;5.00;;;;;;;;;;6201012;23;20035;-91
2023/03/05 21:42:35;;;;;;;7.43;4.70;;;;;;;;;;6201124;23;20023;-92
2023/03/05 21:45:25;;;;;;;9.60;4.03;;;3.00;99.90;;;;;;6201196;23;20135;-90
2023/03/05 21:48:13;;;;;;;9.27;3.33;;;3.00;99.90;;;;;;6200817;23;20015;-92
2023/03/05 21:50:58;;;;;;;5.47;2.63;;;;;;;;;;6200532;23;20442;-90
2023/03/05 21:53:42;;;;;;;6.43;2.53;;;;;;;;;;6201095;23;20020;-92
2023/03/05 21:56:29;;;;;;;8.93;2.37;;;;;;;;;;6201111;23;20066;-90
2023/03/05 21:59:14;;;;;;;9.23;2.30;;;;;;;;;;6200250;23;20031;-91
2023/03/05 22:01:59;;;;;;;9.77;2.00;;;;;;;;;;6200492;23;20458;-90
2023/03/05 22:04:46;;;;;;;7.43;2.43;;;3.10;99.90;;;;;;6201144;23;20036;-91
2023/03/05 22:07:39;;;;;;;7.83;2.50;;;3.10;99.90;;;;;;6200894;23;20335;-90
2023/03/05 22:10:27;;;;;;;8.97;2.10;;;3.10;99.90;;;;;;6201126;23;20015;-91
2023/03/05 22:13:12;;;;;;;6.80;2.30;;;;;;;;;;6200471;23;20071;-91
2023/03/05 22:15:58;;;;;;;6.33;1.73;;;3.10;99.90;;;;;;6199961;23;20017;-91
2023/03/05 22:18:45;;;;;;;8.83;2.57;;;;;;;;;;6180463;23;20092;-91
2023/03/05 22:21:30;;;;;;;5.43;2.50;;;;;;;;;;6200247;23;20344;-91
2023/03/05 22:24:17;;;;;;;7.83;3.13;;;;;;;;;;6193336;23;20019;-91
2023/03/05 22:27:01;;;;;;;10.23;2.90;;;;;;;;;;6193639;23;20020;-90
2023/03/05 22:29:48;;;;;;;6.37;2.07;;;3.00;99.90;;;;;;6194022;23;20063;-91
2023/03/05 22:32:33;;;;;;;8.60;2.40;;;3.00;99.90;;;;;;6193817;23;20063;-91
2023/03/05 22:35:18;;;;;;;9.17;2.17;;;;;;;;;;6193614;23;20339;-90
2023/03/05 22:38:03;;;;;;;5.77;2.47;;;;;;;;;;6193679;23;20019;-90
2023/03/05 22:40:48;;;;;;;7.20;2.30;;;3.00;99.90;;;;;;6194065;23;20020;-90
2023/03/05 22:43:34;;;;;;;10.50;2.50;;;;;;;;;;6216394;23;20135;-91
2023/03/05 22:46:22;;;;;;;5.97;2.27;;;2.90;99.90;;;;;;6193503;23;20011;-90
2023/03/05 22:49:09;;;;;;;7.33;2.10;;;;;;;;;;6215793;23;20015;-90
2023/03/05 22:51:54;;;;;;;5.80;2.30;;;;;;;;;;6193729;23;20078;-90
2023/03/05 22:54:39;;;;;;;10.37;2.43;;;;;;;;;;6172932;23;20104;-91
2023/03/05 22:57:23;;;;;;;10.80;2.37;;;;;;;;;;6193574;23;20449;-91
2023/03/05 23:00:15;;;;;;;6.67;2.20;;;2.90;99.90;;;;;;6193385;23;20331;-90
2023/03/05 23:03:00;;;;;;;7.93;2.30;;;;;;;;;;6193211;23;20373;-90
2023/03/05 23:05:44;;;;;;;9.63;2.47;;;;;;;;;;6216993;23;20012;-90
2023/03/05 23:08:29;;;;;;;6.63;2.40;;;;;;;;;;6195269;23;20051;-90
2023/03/05 23:11:13;;;;;;;4.97;2.10;;;;;;;;;;6172156;23;20435;-90
2023/03/05 23:14:00;;;;;;;6.77;2.20;;;;;;;;;;6193412;23;20062;-90
2023/03/05 23:16:45;;;;;;;6.63;2.33;;;;;;;;;;6173239;23;20474;-91
2023/03/05 23:19:30;;;;;;;12.00;3.10;;;;;;;;;;6193343;23;20055;-90
2023/03/05 23:22:14;;;;;;;7.83;2.27;;;;;;;;;;6192734;23;20090;-90
2023/03/05 23:24:59;;;;;;;5.63;2.40;;;;;;;;;;6172443;23;20402;-90
2023/03/05 23:27:47;;;;;;;5.37;2.07;;;2.90;99.90;;;;;;6193688;23;20055;-91
2023/03/05 23:30:37;;;;;;;5.37;1.90;;;2.80;99.90;;;;;;6193576;23;20079;-89
2023/03/05 23:33:23;;;;;;;5.13;1.73;;;2.80;99.90;;;;;;6192742;23;20067;-90
2023/03/05 23:36:08;;;;;;;8.93;2.43;;;;;;;;;;6192618;23;20450;-90
2023/03/05 23:38:56;;;;;;;8.00;1.93;;;;;;;;;;6193227;23;20015;-90
2023/03/05 23:41:41;;;;;;;6.43;2.00;;;;;;;;;;6215337;23;20019;-90
2023/03/05 23:44:25;;;;;;;10.70;2.23;;;;;;;;;;6215206;23;20015;-90
2023/03/05 23:47:10;;;;;;;5.47;2.20;;;;;;;;;;6192765;23;20078;-91
2023/03/05 23:49:54;;;;;;;6.97;1.80;;;;;;;;;;6172283;23;20015;-90
2023/03/05 23:52:42;;;;;;;5.73;1.63;;;2.80;99.90;;;;;;6193027;23;20019;-89
2023/03/05 23:55:30;;;;;;;6.07;2.10;;;2.80;99.90;;;;;;6192380;23;20022;-90
2023/03/05 23:58:15;;;;;;;6.83;1.67;;;;;;;;;;6214857;23;20063;-90
